Gearhart, Oregon
Current Conditions -  °F | °C
As of 6:44 AM on Monday 26 Jan 2015 (Local Time) from KAST Reporting Station
Haze Haze  
Wind Chill: 37°   Ceiling: Unl
Heat Index: 37°   Visibility: 1.7mi
Dew Point: 36°   Wind: 0mph
Humidity: 96%   Direction: NA
Pressure: 29.95"   Gusts: NA
Location:  45.8905°N, 123.667°W
Report Text: KAST 261444Z AUTO 00000KT 1 3/4SM BR CLR 03/02 A2995 RMK AO2 VIS 3/4V5 T00280022
Loading
Personal Weather Stations






























Interactive Weather Map New forecast layout! Learn more

10-Day Weather Forecast

Advertisements
Track Severe Weather on mobile